createdAt,value
2023-02-11T00:01:57.779Z,4.67
2023-02-11T00:04:24.055Z,4.71
2023-02-11T00:06:50.260Z,4.72
2023-02-11T00:09:16.483Z,4.67
2023-02-11T00:11:42.680Z,4.71
2023-02-11T00:14:09.659Z,4.72
2023-02-11T00:16:35.932Z,4.68
2023-02-11T00:19:02.385Z,4.74
2023-02-11T00:21:28.854Z,4.69
2023-02-11T00:23:55.183Z,4.70
2023-02-11T00:26:22.656Z,4.71
2023-02-11T00:28:48.976Z,4.69
2023-02-11T00:31:15.324Z,4.72
2023-02-11T00:33:41.694Z,4.71
2023-02-11T00:36:08.863Z,4.64
2023-02-11T00:38:35.109Z,4.69
2023-02-11T00:41:01.401Z,4.76
2023-02-11T00:43:27.651Z,4.75
2023-02-11T00:45:53.947Z,4.79
2023-02-11T00:48:20.183Z,4.75
2023-02-11T00:50:46.494Z,4.79
2023-02-11T00:53:12.759Z,4.80
2023-02-11T00:55:38.974Z,4.85
2023-02-11T00:58:05.453Z,4.77
2023-02-11T01:00:31.696Z,4.88
2023-02-11T01:02:57.906Z,4.86
2023-02-11T01:05:24.146Z,4.82
2023-02-11T01:07:50.416Z,4.86
2023-02-11T01:10:16.657Z,4.82
2023-02-11T01:12:42.867Z,4.89
2023-02-11T01:15:09.200Z,4.89
2023-02-11T01:17:35.500Z,4.86
2023-02-11T01:20:03.131Z,4.91
2023-02-11T01:22:29.344Z,4.84
2023-02-11T01:24:55.563Z,4.88
2023-02-11T01:27:21.781Z,4.96
2023-02-11T01:29:48.019Z,4.94
2023-02-11T01:32:14.294Z,4.97
2023-02-11T01:34:40.547Z,5.02
2023-02-11T01:37:06.755Z,5.04
2023-02-11T01:39:33.796Z,5.02
2023-02-11T01:42:00.004Z,5.04
2023-02-11T01:44:30.925Z,5.03
2023-02-11T01:46:57.164Z,5.05
2023-02-11T01:49:27.092Z,5.03
2023-02-11T01:52:00.800Z,5.05
2023-02-11T01:54:29.436Z,5.12
2023-02-11T01:56:56.379Z,5.11
2023-02-11T01:59:24.025Z,5.13
2023-02-11T02:01:52.208Z,5.13
2023-02-11T02:04:18.844Z,5.17
2023-02-11T02:06:48.396Z,5.13
2023-02-11T02:09:20.166Z,5.15
2023-02-11T02:11:46.462Z,5.14
2023-02-11T02:14:12.663Z,5.18
2023-02-11T02:16:38.940Z,5.21
2023-02-11T02:19:18.679Z,5.24
2023-02-11T02:22:03.858Z,5.24
2023-02-11T02:24:39.185Z,5.32
2023-02-11T02:27:25.282Z,5.30
2023-02-11T02:29:51.477Z,5.27
2023-02-11T02:32:20.659Z,5.24
2023-02-11T02:34:51.106Z,5.28
2023-02-11T02:37:18.473Z,5.30
2023-02-11T02:39:44.669Z,5.25
2023-02-11T02:42:20.820Z,5.25
2023-02-11T02:44:50.190Z,5.28
2023-02-11T02:47:16.443Z,5.29
2023-02-11T02:49:42.660Z,5.32
2023-02-11T02:52:27.520Z,5.29
2023-02-11T03:01:12.801Z,5.33
2023-02-11T03:03:39.062Z,5.31
2023-02-11T03:06:12.341Z,5.23
2023-02-11T03:08:49.145Z,5.25
2023-02-11T03:11:15.582Z,5.23
2023-02-11T03:13:41.821Z,5.22
2023-02-11T03:16:08.946Z,5.21
2023-02-11T03:18:35.313Z,5.31
2023-02-11T03:21:01.544Z,5.21
2023-02-11T03:23:37.280Z,5.20
2023-02-11T03:26:12.278Z,5.21
2023-02-11T03:28:40.535Z,5.29
2023-02-11T03:31:18.586Z,5.27
2023-02-11T03:34:05.165Z,5.31
2023-02-11T03:36:38.016Z,5.30
2023-02-11T03:39:04.269Z,5.31
2023-02-11T03:41:30.467Z,5.36
2023-02-11T03:43:56.902Z,5.33
2023-02-11T03:46:25.179Z,5.34
2023-02-11T03:48:52.221Z,5.42
2023-02-11T03:51:18.464Z,5.33
2023-02-11T03:53:44.964Z,5.36
2023-02-11T03:56:13.101Z,5.30
2023-02-11T03:58:39.311Z,5.32
2023-02-11T04:01:06.045Z,5.39
2023-02-11T04:03:32.368Z,5.35
2023-02-11T04:05:58.658Z,5.38
2023-02-11T04:08:25.013Z,5.41
2023-02-11T04:10:51.245Z,5.38
2023-02-11T04:13:17.467Z,5.41
2023-02-11T04:15:43.673Z,5.46
2023-02-11T04:18:10.224Z,5.49
2023-02-11T04:20:36.443Z,5.47
2023-02-11T04:23:02.666Z,5.56
2023-02-11T04:25:28.883Z,5.62
2023-02-11T04:27:55.186Z,5.57
2023-02-11T04:30:21.473Z,5.65
2023-02-11T04:32:47.728Z,5.63
2023-02-11T04:35:13.921Z,5.73
2023-02-11T04:37:40.133Z,5.64
2023-02-11T04:40:06.643Z,5.74
2023-02-11T04:42:32.857Z,5.68
2023-02-11T04:44:59.065Z,5.75
2023-02-11T04:47:25.278Z,5.76
2023-02-11T04:49:51.494Z,5.76
2023-02-11T04:52:17.689Z,5.79
2023-02-11T04:54:43.901Z,5.77
2023-02-11T04:57:10.109Z,5.81
2023-02-11T04:59:36.454Z,5.82
2023-02-11T05:02:02.649Z,5.84
2023-02-11T05:04:28.994Z,5.89
2023-02-11T05:06:57.705Z,5.88
2023-02-11T05:09:24.896Z,5.86
2023-02-11T05:11:51.144Z,5.89
2023-02-11T05:14:17.411Z,5.90
2023-02-11T05:16:43.657Z,5.92
2023-02-11T05:19:10.348Z,5.92
2023-02-11T05:21:36.568Z,5.90
2023-02-11T05:24:02.783Z,5.99
2023-02-11T05:26:28.992Z,5.94
2023-02-11T05:28:55.701Z,5.99
2023-02-11T05:31:21.952Z,5.99
2023-02-11T05:33:48.178Z,6.02
2023-02-11T05:36:14.384Z,6.01
2023-02-11T05:38:40.598Z,6.03
2023-02-11T05:41:06.822Z,6.02
2023-02-11T05:43:33.023Z,6.08
2023-02-11T05:45:59.306Z,6.10
2023-02-11T05:48:25.517Z,6.11
2023-02-11T05:50:51.732Z,6.11
2023-02-11T05:53:17.948Z,6.16
2023-02-11T05:55:44.385Z,6.13
2023-02-11T05:58:10.595Z,6.13
2023-02-11T06:00:36.889Z,6.13
2023-02-11T06:03:03.105Z,6.15
2023-02-11T06:05:29.319Z,6.18
2023-02-11T06:07:55.539Z,6.12
2023-02-11T06:10:21.754Z,6.18
2023-02-11T06:12:47.957Z,6.15
2023-02-11T06:15:14.186Z,6.15
2023-02-11T06:17:40.391Z,6.12
2023-02-11T06:20:07.015Z,6.15
2023-02-11T06:22:34.549Z,6.19
2023-02-11T06:25:02.304Z,6.19
2023-02-11T06:27:28.769Z,6.17
2023-02-11T06:29:54.984Z,6.13
2023-02-11T06:32:42.070Z,6.14
2023-02-11T06:35:09.419Z,6.14
2023-02-11T06:37:36.912Z,6.14
2023-02-11T06:40:03.180Z,6.16
2023-02-11T06:42:29.392Z,6.22
2023-02-11T06:44:55.592Z,6.25
2023-02-11T06:47:21.800Z,6.21
2023-02-11T06:49:48.014Z,6.18
2023-02-11T06:52:14.213Z,6.19
2023-02-11T06:54:40.418Z,6.27
2023-02-11T06:57:06.618Z,6.26
2023-02-11T06:59:32.819Z,6.35
2023-02-11T07:01:59.174Z,6.41
2023-02-11T07:04:25.598Z,6.36
2023-02-11T07:06:51.798Z,6.41
2023-02-11T07:09:18.003Z,6.47
2023-02-11T07:11:44.212Z,6.43
2023-02-11T07:14:10.407Z,6.49
2023-02-11T07:16:36.835Z,6.46
2023-02-11T07:19:03.082Z,6.49
2023-02-11T07:21:29.311Z,6.58
2023-02-11T07:23:55.506Z,6.61
2023-02-11T07:26:22.099Z,6.65
2023-02-11T07:28:48.354Z,6.64
2023-02-11T07:31:18.530Z,6.69
2023-02-11T07:33:44.946Z,6.77
2023-02-11T07:36:11.271Z,6.80
2023-02-11T07:38:37.471Z,6.79
2023-02-11T07:41:04.235Z,6.85
2023-02-11T07:43:30.960Z,6.80
2023-02-11T07:45:57.172Z,6.83
2023-02-11T07:48:23.378Z,6.94
2023-02-11T07:50:49.590Z,6.97
2023-02-11T07:53:15.781Z,6.98
2023-02-11T07:55:44.950Z,6.99
2023-02-11T07:58:11.152Z,6.98
2023-02-11T08:00:37.370Z,7.06
2023-02-11T08:03:03.602Z,7.11
2023-02-11T08:05:29.807Z,7.09
2023-02-11T08:07:56.031Z,7.11
2023-02-11T08:10:22.248Z,7.18
2023-02-11T08:12:48.460Z,7.24
2023-02-11T08:15:14.687Z,7.22
2023-02-11T08:17:40.882Z,7.22
2023-02-11T08:20:07.218Z,7.25
2023-02-11T08:22:33.760Z,7.26
2023-02-11T08:25:00.031Z,7.26
2023-02-11T08:27:26.232Z,7.28
2023-02-11T08:29:55.559Z,7.31
2023-02-11T08:32:21.838Z,7.33
2023-02-11T08:34:50.982Z,7.31
2023-02-11T08:37:17.192Z,7.35
2023-02-11T08:39:43.402Z,7.40
2023-02-11T08:42:09.611Z,7.41
2023-02-11T08:44:35.813Z,7.42
2023-02-11T08:47:02.027Z,7.46
2023-02-11T08:49:28.245Z,7.46
2023-02-11T08:51:54.452Z,7.52
2023-02-11T08:54:20.649Z,7.56
2023-02-11T08:56:50.169Z,7.57
2023-02-11T08:59:16.364Z,7.56
2023-02-11T09:01:42.594Z,7.53
2023-02-11T09:04:09.069Z,7.54
2023-02-11T09:06:35.288Z,7.59
2023-02-11T09:09:01.497Z,7.61
2023-02-11T09:11:28.838Z,7.60
2023-02-11T09:13:55.058Z,7.61
2023-02-11T09:16:25.144Z,7.57
2023-02-11T09:18:51.385Z,7.54
2023-02-11T09:21:17.634Z,7.58
2023-02-11T09:23:43.845Z,7.57
2023-02-11T09:26:20.152Z,7.56
2023-02-11T09:28:46.454Z,7.55
2023-02-11T09:31:13.821Z,7.51
2023-02-11T09:33:40.339Z,7.46
2023-02-11T09:36:06.659Z,7.40
2023-02-11T09:38:32.859Z,7.39
2023-02-11T09:40:59.066Z,7.39
2023-02-11T09:43:31.247Z,7.35
2023-02-11T09:45:57.537Z,7.37
2023-02-11T09:48:23.804Z,7.41
2023-02-11T09:50:50.914Z,7.48
2023-02-11T09:53:23.257Z,7.49
2023-02-11T09:55:51.282Z,7.45
2023-02-11T09:58:22.824Z,7.47
2023-02-11T10:00:49.229Z,7.54
2023-02-11T10:03:18.554Z,7.54
2023-02-11T10:05:55.623Z,7.54
2023-02-11T10:08:40.738Z,7.54
2023-02-11T10:11:06.921Z,7.57
2023-02-11T10:13:42.459Z,7.58
2023-02-11T10:16:21.720Z,7.58
2023-02-11T10:19:07.931Z,7.65
2023-02-11T10:21:46.378Z,7.67
2023-02-11T10:24:13.250Z,7.72
2023-02-11T10:26:39.496Z,7.74
2023-02-11T10:29:11.273Z,7.81
2023-02-11T10:31:38.755Z,7.89
2023-02-11T10:34:05.795Z,7.89
2023-02-11T10:36:36.497Z,7.87
2023-02-11T10:39:09.804Z,7.84
2023-02-11T10:41:36.650Z,7.87
2023-02-11T10:44:02.868Z,7.84
2023-02-11T10:46:32.644Z,7.85
2023-02-11T10:48:59.054Z,7.90
2023-02-11T10:51:25.857Z,7.93
2023-02-11T10:54:04.278Z,7.91
2023-02-11T10:56:50.757Z,7.97
2023-02-11T10:59:27.310Z,7.99
2023-02-11T11:02:00.111Z,7.99
2023-02-11T11:04:29.419Z,8.01
2023-02-11T11:07:14.293Z,8.01
2023-02-11T11:09:52.413Z,8.08
2023-02-11T11:12:24.431Z,8.10
2023-02-11T11:14:54.536Z,8.10
2023-02-11T11:17:20.742Z,8.13
2023-02-11T11:19:46.949Z,8.17
2023-02-11T11:22:20.353Z,8.18
2023-02-11T11:24:46.608Z,8.20
2023-02-11T11:27:17.342Z,8.26
2023-02-11T11:29:45.634Z,8.26
2023-02-11T11:32:13.193Z,8.26
2023-02-11T11:34:42.980Z,8.27
2023-02-11T11:37:13.104Z,8.25
2023-02-11T11:39:39.310Z,8.24
2023-02-11T11:42:14.044Z,8.25
2023-02-11T11:44:40.273Z,8.26
2023-02-11T11:47:12.508Z,8.25
2023-02-11T11:49:39.627Z,8.24
2023-02-11T11:52:11.420Z,8.18
2023-02-11T11:54:37.627Z,8.19
2023-02-11T11:57:05.556Z,8.20
2023-02-11T11:59:31.767Z,8.17
2023-02-11T12:02:16.810Z,8.13
2023-02-11T12:04:48.920Z,8.12
2023-02-11T12:07:26.746Z,8.12
2023-02-11T12:09:52.947Z,8.17
2023-02-11T12:12:22.160Z,8.18
2023-02-11T12:15:07.024Z,8.20
2023-02-11T12:18:11.600Z,8.24
2023-02-11T12:20:42.591Z,8.20
2023-02-11T12:23:15.838Z,8.19
2023-02-11T12:25:42.000Z,8.19
2023-02-11T12:28:20.524Z,8.19
2023-02-11T12:30:54.179Z,8.19
2023-02-11T12:33:23.746Z,8.24
2023-02-11T12:36:04.152Z,8.26
2023-02-11T12:38:39.491Z,8.25
2023-02-11T12:41:15.182Z,8.30
2023-02-11T12:43:42.766Z,8.29
2023-02-11T12:46:08.993Z,8.30
2023-02-11T12:48:50.840Z,8.31
2023-02-11T12:51:23.757Z,8.33
2023-02-11T12:54:06.928Z,8.30
2023-02-11T12:56:37.602Z,8.26
2023-02-11T12:59:03.886Z,8.25
2023-02-11T13:01:31.830Z,8.28
2023-02-11T13:04:15.934Z,8.33
2023-02-11T13:06:44.132Z,8.37
2023-02-11T13:09:15.832Z,8.43
2023-02-11T13:11:43.101Z,8.48
2023-02-11T13:14:12.479Z,8.48
2023-02-11T13:16:43.141Z,8.53
2023-02-11T13:19:12.416Z,8.54
2023-02-11T13:21:53.705Z,8.62
2023-02-11T13:24:19.864Z,8.61
2023-02-11T13:26:48.866Z,8.64
2023-02-11T13:29:16.985Z,8.63
2023-02-11T13:31:43.314Z,8.64
2023-02-11T13:34:42.069Z,8.65
2023-02-11T13:37:28.535Z,8.62
2023-02-11T13:40:04.950Z,8.62
2023-02-11T13:42:31.168Z,8.60
2023-02-11T13:44:57.369Z,8.62
2023-02-11T13:47:25.671Z,8.62
2023-02-11T13:49:51.889Z,8.63
2023-02-11T13:52:20.718Z,8.62
2023-02-11T13:54:47.525Z,8.66
2023-02-11T13:57:19.940Z,8.73
2023-02-11T13:59:48.901Z,8.77
2023-02-11T14:02:33.781Z,8.83
2023-02-11T14:05:03.077Z,8.94
2023-02-11T14:07:29.238Z,8.97
2023-02-11T14:09:55.457Z,8.94
2023-02-11T14:12:21.611Z,8.94
2023-02-11T14:15:02.869Z,8.92
2023-02-11T14:17:31.229Z,8.87
2023-02-11T14:19:57.529Z,8.84
2023-02-11T14:22:23.700Z,8.84
2023-02-11T14:24:51.505Z,8.87
2023-02-11T14:27:19.808Z,8.86
2023-02-11T14:29:51.120Z,8.86
2023-02-11T14:32:46.656Z,8.82
2023-02-11T14:35:20.762Z,8.82
2023-02-11T14:37:49.962Z,8.85
2023-02-11T14:40:27.479Z,8.80
2023-02-11T14:42:53.812Z,8.75
2023-02-11T14:45:21.254Z,8.74
2023-02-11T14:47:56.788Z,8.73
2023-02-11T14:50:25.079Z,8.69
2023-02-11T14:52:51.301Z,8.67
2023-02-11T14:55:30.551Z,8.65
2023-02-11T14:58:13.171Z,8.63
2023-02-11T15:00:57.643Z,8.63
2023-02-11T15:03:27.616Z,8.64
2023-02-11T15:05:54.822Z,8.64
2023-02-11T15:08:21.022Z,8.61
2023-02-11T15:10:47.234Z,8.59
2023-02-11T15:13:18.133Z,8.59
2023-02-11T15:15:45.353Z,8.54
2023-02-11T15:18:13.082Z,8.49
2023-02-11T15:20:39.283Z,8.48
2023-02-11T15:23:06.770Z,8.45
2023-02-11T15:25:34.229Z,8.44
2023-02-11T15:28:00.635Z,8.47
2023-02-11T15:30:28.075Z,8.45
2023-02-11T15:32:55.157Z,8.45
2023-02-11T15:35:21.425Z,8.41
2023-02-11T15:37:50.490Z,8.38
2023-02-11T15:40:18.042Z,8.36
2023-02-11T15:42:58.671Z,8.32
2023-02-11T15:45:26.412Z,8.30
2023-02-11T15:47:53.155Z,8.26
2023-02-11T15:50:24.255Z,8.31
2023-02-11T15:52:50.467Z,8.34
2023-02-11T15:55:16.689Z,8.31
2023-02-11T15:57:46.679Z,8.31
2023-02-11T16:00:19.118Z,8.32
2023-02-11T16:02:45.499Z,8.34
2023-02-11T16:05:28.274Z,8.36
2023-02-11T16:07:54.494Z,8.29
2023-02-11T16:10:30.864Z,8.33
2023-02-11T16:13:02.571Z,8.25
2023-02-11T16:15:34.704Z,8.28
2023-02-11T16:18:01.307Z,8.24
2023-02-11T16:20:27.515Z,8.25
2023-02-11T16:22:53.706Z,8.22
2023-02-11T16:25:20.275Z,8.17
2023-02-11T16:27:51.191Z,8.09
2023-02-11T16:30:24.175Z,8.07
2023-02-11T16:32:50.409Z,8.02
2023-02-11T16:35:16.659Z,7.95
2023-02-11T16:37:42.855Z,7.91
2023-02-11T16:40:09.407Z,7.97
2023-02-11T16:42:35.612Z,8.08
2023-02-11T16:45:01.839Z,8.06
2023-02-11T16:47:28.042Z,8.04
2023-02-11T16:49:54.237Z,8.00
2023-02-11T16:52:20.455Z,7.97
2023-02-11T16:54:46.668Z,7.99
2023-02-11T16:57:16.795Z,7.96
2023-02-11T16:59:43.160Z,7.89
2023-02-11T17:02:16.480Z,7.92
2023-02-11T17:04:42.742Z,7.93
2023-02-11T17:07:09.001Z,7.90
2023-02-11T17:09:35.204Z,7.79
2023-02-11T17:12:01.421Z,7.73
2023-02-11T17:14:27.609Z,7.62
2023-02-11T17:16:53.815Z,7.50
2023-02-11T17:19:20.121Z,7.52
2023-02-11T17:21:46.689Z,7.46
2023-02-11T17:24:12.887Z,7.44
2023-02-11T17:26:39.136Z,7.41
2023-02-11T17:29:05.867Z,7.50
2023-02-11T17:31:32.285Z,7.52
2023-02-11T17:33:58.550Z,7.50
2023-02-11T17:36:24.766Z,7.55
2023-02-11T17:38:50.970Z,7.57
2023-02-11T17:41:17.213Z,7.54
2023-02-11T17:43:43.421Z,7.49
2023-02-11T17:46:09.689Z,7.43
2023-02-11T17:48:38.913Z,7.43
2023-02-11T17:51:05.526Z,7.44
2023-02-11T17:53:31.742Z,7.47
2023-02-11T17:55:57.962Z,7.45
2023-02-11T17:58:24.184Z,7.39
2023-02-11T18:00:50.439Z,7.41
2023-02-11T18:03:16.683Z,7.27
2023-02-11T18:05:42.886Z,7.16
2023-02-11T18:08:09.114Z,7.19
2023-02-11T18:10:35.328Z,7.17
2023-02-11T18:13:01.555Z,7.09
2023-02-11T18:15:27.774Z,6.96
2023-02-11T18:17:54.766Z,6.81
2023-02-11T18:20:20.985Z,6.80
2023-02-11T18:22:47.219Z,6.68
2023-02-11T18:25:13.875Z,6.66
2023-02-11T18:27:40.090Z,6.66
2023-02-11T18:30:06.589Z,6.67
2023-02-11T18:32:32.810Z,6.62
2023-02-11T18:34:59.016Z,6.70
2023-02-11T18:37:25.252Z,6.70
2023-02-11T18:39:51.459Z,6.67
2023-02-11T18:42:17.685Z,6.63
2023-02-11T18:44:43.927Z,6.72
2023-02-11T18:47:10.725Z,6.78
2023-02-11T18:49:37.148Z,6.90
2023-02-11T18:52:03.377Z,6.93
2023-02-11T18:54:29.585Z,6.93
2023-02-11T18:56:55.786Z,6.97
2023-02-11T18:59:22.007Z,6.93
2023-02-11T19:01:48.205Z,6.97
2023-02-11T19:04:14.458Z,6.97
2023-02-11T19:06:40.699Z,7.00
2023-02-11T19:09:09.013Z,7.02
2023-02-11T19:11:35.293Z,7.04
2023-02-11T19:14:04.345Z,7.06
2023-02-11T19:16:30.558Z,7.06
2023-02-11T19:18:56.801Z,7.07
2023-02-11T19:21:23.031Z,7.04
2023-02-11T19:23:49.308Z,7.04
2023-02-11T19:26:15.517Z,7.08
2023-02-11T19:28:41.744Z,7.10
2023-02-11T19:31:08.226Z,7.08
2023-02-11T19:33:35.486Z,7.12
2023-02-11T19:36:05.347Z,7.10
2023-02-11T19:38:31.580Z,7.18
2023-02-11T19:40:57.823Z,7.15
2023-02-11T19:43:24.041Z,7.13
2023-02-11T19:45:50.871Z,7.12
2023-02-11T19:48:17.300Z,7.16
2023-02-11T19:50:43.506Z,7.16
2023-02-11T19:53:09.718Z,7.10
2023-02-11T19:55:35.949Z,7.10
2023-02-11T19:58:02.169Z,7.10
2023-02-11T20:00:28.384Z,7.17
2023-02-11T20:02:54.636Z,7.15
2023-02-11T20:05:20.878Z,7.13
2023-02-11T20:07:47.085Z,7.21
2023-02-11T20:10:13.307Z,7.12
2023-02-11T20:12:39.515Z,7.10
2023-02-11T20:15:05.834Z,7.07
2023-02-11T20:17:32.036Z,7.06
2023-02-11T20:19:58.287Z,7.03
2023-02-11T20:22:24.491Z,7.03
2023-02-11T20:24:50.725Z,7.00
2023-02-11T20:27:19.060Z,6.97
2023-02-11T20:29:46.230Z,6.99
2023-02-11T20:32:12.544Z,6.97
2023-02-11T20:34:38.852Z,6.93
2023-02-11T20:37:05.046Z,6.92
2023-02-11T20:39:31.277Z,6.86
2023-02-11T20:41:57.509Z,6.88
2023-02-11T20:44:23.759Z,6.86
2023-02-11T20:46:50.140Z,6.84
2023-02-11T20:49:17.882Z,6.88
2023-02-11T20:51:44.114Z,6.80
2023-02-11T20:54:11.572Z,6.77
2023-02-11T20:56:38.074Z,6.79
2023-02-11T20:59:04.390Z,6.78
2023-02-11T21:01:31.791Z,6.77
2023-02-11T21:04:05.574Z,6.71
2023-02-11T21:06:32.988Z,6.73
2023-02-11T21:08:59.251Z,6.69
2023-02-11T21:11:25.456Z,6.70
2023-02-11T21:13:51.670Z,6.71
2023-02-11T21:16:18.310Z,6.68
2023-02-11T21:18:44.593Z,6.69
2023-02-11T21:21:10.801Z,6.73
2023-02-11T21:23:37.074Z,6.68
2023-02-11T21:26:03.415Z,6.70
2023-02-11T21:28:29.662Z,6.68
2023-02-11T21:30:56.090Z,6.67
2023-02-11T21:33:22.848Z,6.65
2023-02-11T21:35:49.059Z,6.66
2023-02-11T21:38:15.354Z,6.66
2023-02-11T21:40:41.579Z,6.63
2023-02-11T21:43:07.789Z,6.65
2023-02-11T21:45:34.016Z,6.60
2023-02-11T21:48:00.243Z,6.61
2023-02-11T21:50:26.459Z,6.62
2023-02-11T21:52:52.672Z,6.64
2023-02-11T21:55:18.933Z,6.64
2023-02-11T21:57:45.162Z,6.62
2023-02-11T22:00:11.761Z,6.61
2023-02-11T22:02:38.139Z,6.59
2023-02-11T22:05:04.672Z,6.59
2023-02-11T22:07:30.956Z,6.58
2023-02-11T22:09:57.193Z,6.54
2023-02-11T22:12:23.416Z,6.55
2023-02-11T22:14:49.633Z,6.56
2023-02-11T22:17:15.897Z,6.58
2023-02-11T22:19:42.171Z,6.57
2023-02-11T22:22:08.379Z,6.56
2023-02-11T22:24:34.662Z,6.57
2023-02-11T22:27:00.859Z,6.54
2023-02-11T22:29:27.072Z,6.57
2023-02-11T22:31:53.333Z,6.56
2023-02-11T22:34:19.557Z,6.54
2023-02-11T22:36:45.765Z,6.54
2023-02-11T22:39:12.840Z,6.54
2023-02-11T22:41:40.128Z,6.52
2023-02-11T22:44:06.402Z,6.55
2023-02-11T22:46:32.634Z,6.57
2023-02-11T22:48:58.831Z,6.55
2023-02-11T22:51:25.746Z,6.54
2023-02-11T22:53:51.905Z,6.54
2023-02-11T22:56:18.132Z,6.59
2023-02-11T22:58:44.353Z,6.55
2023-02-11T23:01:10.642Z,6.53
2023-02-11T23:03:36.895Z,6.52
2023-02-11T23:06:03.112Z,6.53
2023-02-11T23:08:29.385Z,6.57
2023-02-11T23:10:55.674Z,6.52
2023-02-11T23:13:21.904Z,6.54
2023-02-11T23:15:48.152Z,6.55
2023-02-11T23:18:14.411Z,6.54
2023-02-11T23:20:41.631Z,6.51
2023-02-11T23:23:08.058Z,6.57
2023-02-11T23:25:34.421Z,6.55
2023-02-11T23:28:00.833Z,6.50
2023-02-11T23:30:27.871Z,6.50
2023-02-11T23:32:54.084Z,6.53
2023-02-11T23:35:20.300Z,6.53
2023-02-11T23:37:46.499Z,6.57
2023-02-11T23:40:12.959Z,6.54
2023-02-11T23:42:39.239Z,6.48
2023-02-11T23:45:05.574Z,6.48
2023-02-11T23:47:31.784Z,6.48
2023-02-11T23:49:59.656Z,6.47
2023-02-11T23:52:25.926Z,6.46
2023-02-11T23:54:52.147Z,6.41
2023-02-11T23:57:18.343Z,6.45
2023-02-11T23:59:44.560Z,6.45
